sensor_id;sensor_type;location;lat;lon;timestamp;P1;durP1;ratioP1;P2;durP2;ratioP2
77738;SDS011;66904;59.926;30.404;2023-10-09T00:04:14;0.40;;;0.15;;
77738;SDS011;66904;59.926;30.404;2023-10-09T00:09:16;0.63;;;0.30;;
77738;SDS011;66904;59.926;30.404;2023-10-09T00:14:28;0.00;;;0.00;;
77738;SDS011;66904;59.926;30.404;2023-10-09T00:19:32;0.50;;;0.28;;
77738;SDS011;66904;59.926;30.404;2023-10-09T00:24:33;0.32;;;0.13;;
77738;SDS011;66904;59.926;30.404;2023-10-09T00:29:34;0.43;;;0.20;;
77738;SDS011;66904;59.926;30.404;2023-10-09T00:34:38;0.60;;;0.10;;
77738;SDS011;66904;59.926;30.404;2023-10-09T00:39:39;2.28;;;0.30;;
77738;SDS011;66904;59.926;30.404;2023-10-09T00:44:40;0.43;;;0.30;;
77738;SDS011;66904;59.926;30.404;2023-10-09T00:55:11;1.00;;;0.32;;
77738;SDS011;66904;59.926;30.404;2023-10-09T01:00:21;0.45;;;0.20;;
77738;SDS011;66904;59.926;30.404;2023-10-09T01:05:50;0.30;;;0.20;;
77738;SDS011;66904;59.926;30.404;2023-10-09T01:11:15;0.40;;;0.20;;
77738;SDS011;66904;59.926;30.404;2023-10-09T01:16:24;0.15;;;0.10;;
77738;SDS011;66904;59.926;30.404;2023-10-09T01:21:25;0.40;;;0.13;;
77738;SDS011;66904;59.926;30.404;2023-10-09T01:26:26;0.65;;;0.00;;
77738;SDS011;66904;59.926;30.404;2023-10-09T01:31:27;0.63;;;0.20;;
77738;SDS011;66904;59.926;30.404;2023-10-09T01:36:37;0.35;;;0.20;;
77738;SDS011;66904;59.926;30.404;2023-10-09T01:41:39;0.55;;;0.22;;
77738;SDS011;66904;59.926;30.404;2023-10-09T01:46:46;0.28;;;0.10;;
77738;SDS011;66904;59.926;30.404;2023-10-09T01:51:47;0.38;;;0.10;;
77738;SDS011;66904;59.926;30.404;2023-10-09T01:56:50;0.25;;;0.10;;
77738;SDS011;66904;59.926;30.404;2023-10-09T02:01:53;0.47;;;0.20;;
77738;SDS011;66904;59.926;30.404;2023-10-09T02:06:58;0.22;;;0.20;;
77738;SDS011;66904;59.926;30.404;2023-10-09T02:11:59;0.28;;;0.17;;
77738;SDS011;66904;59.926;30.404;2023-10-09T02:17:00;0.45;;;0.13;;
77738;SDS011;66904;59.926;30.404;2023-10-09T02:22:09;0.55;;;0.20;;
77738;SDS011;66904;59.926;30.404;2023-10-09T02:27:13;0.57;;;0.20;;
77738;SDS011;66904;59.926;30.404;2023-10-09T02:32:20;0.10;;;0.10;;
77738;SDS011;66904;59.926;30.404;2023-10-09T02:37:26;0.17;;;0.10;;
77738;SDS011;66904;59.926;30.404;2023-10-09T02:42:27;0.93;;;0.30;;
77738;SDS011;66904;59.926;30.404;2023-10-09T02:47:28;0.32;;;0.15;;
77738;SDS011;66904;59.926;30.404;2023-10-09T02:52:37;0.03;;;0.00;;
77738;SDS011;66904;59.926;30.404;2023-10-09T02:57:41;1.48;;;0.20;;
77738;SDS011;66904;59.926;30.404;2023-10-09T03:02:43;0.50;;;0.20;;
77738;SDS011;66904;59.926;30.404;2023-10-09T03:07:48;1.17;;;0.10;;
77738;SDS011;66904;59.926;30.404;2023-10-09T03:12:52;0.38;;;0.20;;
77738;SDS011;66904;59.926;30.404;2023-10-09T03:17:53;0.60;;;0.22;;
77738;SDS011;66904;59.926;30.404;2023-10-09T03:22:53;0.50;;;0.20;;
77738;SDS011;66904;59.926;30.404;2023-10-09T03:27:54;0.47;;;0.25;;
77738;SDS011;66904;59.926;30.404;2023-10-09T03:32:58;0.32;;;0.20;;
77738;SDS011;66904;59.926;30.404;2023-10-09T03:38:00;0.38;;;0.17;;
77738;SDS011;66904;59.926;30.404;2023-10-09T03:43:10;0.65;;;0.25;;
77738;SDS011;66904;59.926;30.404;2023-10-09T03:48:11;0.80;;;0.30;;
77738;SDS011;66904;59.926;30.404;2023-10-09T03:53:20;0.40;;;0.15;;
77738;SDS011;66904;59.926;30.404;2023-10-09T03:58:21;0.30;;;0.10;;
77738;SDS011;66904;59.926;30.404;2023-10-09T04:03:22;0.80;;;0.43;;
77738;SDS011;66904;59.926;30.404;2023-10-09T04:08:22;0.47;;;0.28;;
77738;SDS011;66904;59.926;30.404;2023-10-09T04:13:31;1.05;;;0.30;;
77738;SDS011;66904;59.926;30.404;2023-10-09T04:18:35;0.40;;;0.20;;
77738;SDS011;66904;59.926;30.404;2023-10-09T04:23:38;1.27;;;0.45;;
77738;SDS011;66904;59.926;30.404;2023-10-09T04:28:57;0.22;;;0.10;;
77738;SDS011;66904;59.926;30.404;2023-10-09T04:33:58;0.52;;;0.10;;
77738;SDS011;66904;59.926;30.404;2023-10-09T04:39:17;0.40;;;0.20;;
77738;SDS011;66904;59.926;30.404;2023-10-09T04:44:30;0.40;;;0.20;;
77738;SDS011;66904;59.926;30.404;2023-10-09T04:49:36;0.85;;;0.30;;
77738;SDS011;66904;59.926;30.404;2023-10-09T04:55:13;0.68;;;0.15;;
77738;SDS011;66904;59.926;30.404;2023-10-09T05:00:24;1.27;;;0.52;;
77738;SDS011;66904;59.926;30.404;2023-10-09T05:05:25;0.30;;;0.17;;
77738;SDS011;66904;59.926;30.404;2023-10-09T05:10:42;0.55;;;0.20;;
77738;SDS011;66904;59.926;30.404;2023-10-09T05:16:03;0.25;;;0.10;;
77738;SDS011;66904;59.926;30.404;2023-10-09T05:21:04;1.58;;;0.60;;
77738;SDS011;66904;59.926;30.404;2023-10-09T05:26:17;1.17;;;0.45;;
77738;SDS011;66904;59.926;30.404;2023-10-09T05:31:37;0.50;;;0.30;;
77738;SDS011;66904;59.926;30.404;2023-10-09T05:36:56;0.50;;;0.30;;
77738;SDS011;66904;59.926;30.404;2023-10-09T05:42:11;1.27;;;0.20;;
77738;SDS011;66904;59.926;30.404;2023-10-09T05:47:18;1.10;;;0.50;;
77738;SDS011;66904;59.926;30.404;2023-10-09T05:52:33;0.80;;;0.40;;
77738;SDS011;66904;59.926;30.404;2023-10-09T05:57:40;0.40;;;0.20;;
77738;SDS011;66904;59.926;30.404;2023-10-09T06:02:55;0.95;;;0.43;;
77738;SDS011;66904;59.926;30.404;2023-10-09T06:08:15;0.77;;;0.20;;
77738;SDS011;66904;59.926;30.404;2023-10-09T06:13:24;0.98;;;0.70;;
77738;SDS011;66904;59.926;30.404;2023-10-09T06:18:43;2.30;;;0.55;;
77738;SDS011;66904;59.926;30.404;2023-10-09T06:23:44;2.00;;;0.38;;
77738;SDS011;66904;59.926;30.404;2023-10-09T06:29:03;2.30;;;0.50;;
77738;SDS011;66904;59.926;30.404;2023-10-09T06:34:30;1.77;;;0.45;;
77738;SDS011;66904;59.926;30.404;2023-10-09T06:39:35;0.75;;;0.45;;
77738;SDS011;66904;59.926;30.404;2023-10-09T06:44:50;0.82;;;0.40;;
77738;SDS011;66904;59.926;30.404;2023-10-09T06:49:54;5.05;;;0.73;;
77738;SDS011;66904;59.926;30.404;2023-10-09T06:55:36;1.00;;;0.60;;
77738;SDS011;66904;59.926;30.404;2023-10-09T07:00:51;1.50;;;0.80;;
77738;SDS011;66904;59.926;30.404;2023-10-09T07:06:07;0.60;;;0.20;;
77738;SDS011;66904;59.926;30.404;2023-10-09T07:11:24;1.00;;;0.40;;
77738;SDS011;66904;59.926;30.404;2023-10-09T07:16:47;1.38;;;0.60;;
77738;SDS011;66904;59.926;30.404;2023-10-09T07:21:57;1.67;;;0.57;;
77738;SDS011;66904;59.926;30.404;2023-10-09T07:27:03;1.65;;;0.47;;
77738;SDS011;66904;59.926;30.404;2023-10-09T07:32:17;0.70;;;0.35;;
77738;SDS011;66904;59.926;30.404;2023-10-09T07:37:25;1.90;;;0.73;;
77738;SDS011;66904;59.926;30.404;2023-10-09T07:42:35;1.60;;;0.60;;
77738;SDS011;66904;59.926;30.404;2023-10-09T07:47:41;1.27;;;0.60;;
77738;SDS011;66904;59.926;30.404;2023-10-09T07:53:00;0.43;;;0.20;;
77738;SDS011;66904;59.926;30.404;2023-10-09T07:58:15;0.77;;;0.40;;
77738;SDS011;66904;59.926;30.404;2023-10-09T08:03:16;0.93;;;0.30;;
77738;SDS011;66904;59.926;30.404;2023-10-09T08:08:24;2.83;;;0.57;;
77738;SDS011;66904;59.926;30.404;2023-10-09T08:13:33;1.80;;;0.52;;
77738;SDS011;66904;59.926;30.404;2023-10-09T08:18:49;0.60;;;0.30;;
77738;SDS011;66904;59.926;30.404;2023-10-09T08:23:53;0.73;;;0.30;;
77738;SDS011;66904;59.926;30.404;2023-10-09T08:28:55;0.85;;;0.30;;
77738;SDS011;66904;59.926;30.404;2023-10-09T08:34:15;1.83;;;0.68;;
77738;SDS011;66904;59.926;30.404;2023-10-09T08:39:27;1.20;;;0.40;;
77738;SDS011;66904;59.926;30.404;2023-10-09T08:44:33;1.60;;;0.70;;
77738;SDS011;66904;59.926;30.404;2023-10-09T08:49:34;1.80;;;0.70;;
77738;SDS011;66904;59.926;30.404;2023-10-09T08:54:35;1.08;;;0.57;;
77738;SDS011;66904;59.926;30.404;2023-10-09T08:59:40;1.35;;;0.77;;
77738;SDS011;66904;59.926;30.404;2023-10-09T09:04:44;1.23;;;0.80;;
77738;SDS011;66904;59.926;30.404;2023-10-09T09:09:59;1.35;;;0.40;;
77738;SDS011;66904;59.926;30.404;2023-10-09T09:15:21;0.90;;;0.50;;
77738;SDS011;66904;59.926;30.404;2023-10-09T09:20:26;1.00;;;0.52;;
77738;SDS011;66904;59.926;30.404;2023-10-09T09:25:52;1.20;;;0.65;;
77738;SDS011;66904;59.926;30.404;2023-10-09T09:31:06;1.05;;;0.40;;
77738;SDS011;66904;59.926;30.404;2023-10-09T09:36:14;1.27;;;0.50;;
77738;SDS011;66904;59.926;30.404;2023-10-09T09:41:14;1.20;;;0.50;;
77738;SDS011;66904;59.926;30.404;2023-10-09T09:46:34;1.27;;;0.52;;
77738;SDS011;66904;59.926;30.404;2023-10-09T09:51:35;0.77;;;0.30;;
77738;SDS011;66904;59.926;30.404;2023-10-09T09:56:36;1.17;;;0.77;;
77738;SDS011;66904;59.926;30.404;2023-10-09T10:01:39;1.83;;;0.50;;
77738;SDS011;66904;59.926;30.404;2023-10-09T10:06:42;1.30;;;0.50;;
77738;SDS011;66904;59.926;30.404;2023-10-09T10:11:48;1.00;;;0.43;;
77738;SDS011;66904;59.926;30.404;2023-10-09T10:17:04;1.05;;;0.63;;
77738;SDS011;66904;59.926;30.404;2023-10-09T10:22:29;1.42;;;0.55;;
77738;SDS011;66904;59.926;30.404;2023-10-09T10:27:30;0.88;;;0.50;;
77738;SDS011;66904;59.926;30.404;2023-10-09T10:37:51;1.60;;;0.68;;
77738;SDS011;66904;59.926;30.404;2023-10-09T10:43:00;1.00;;;0.28;;
77738;SDS011;66904;59.926;30.404;2023-10-09T10:48:13;2.47;;;0.85;;
77738;SDS011;66904;59.926;30.404;2023-10-09T10:53:23;1.40;;;0.70;;
77738;SDS011;66904;59.926;30.404;2023-10-09T10:58:28;1.75;;;0.75;;
77738;SDS011;66904;59.926;30.404;2023-10-09T11:03:47;1.25;;;0.70;;
77738;SDS011;66904;59.926;30.404;2023-10-09T11:08:54;1.83;;;0.73;;
77738;SDS011;66904;59.926;30.404;2023-10-09T11:13:54;1.75;;;0.65;;
77738;SDS011;66904;59.926;30.404;2023-10-09T11:19:11;1.65;;;0.65;;
77738;SDS011;66904;59.926;30.404;2023-10-09T11:24:28;1.73;;;0.80;;
77738;SDS011;66904;59.926;30.404;2023-10-09T11:29:35;2.13;;;0.52;;
77738;SDS011;66904;59.926;30.404;2023-10-09T11:34:46;0.93;;;0.45;;
77738;SDS011;66904;59.926;30.404;2023-10-09T11:39:53;1.25;;;0.60;;
77738;SDS011;66904;59.926;30.404;2023-10-09T11:44:54;1.65;;;0.85;;
77738;SDS011;66904;59.926;30.404;2023-10-09T11:49:56;1.23;;;0.63;;
77738;SDS011;66904;59.926;30.404;2023-10-09T11:55:03;2.10;;;1.23;;
77738;SDS011;66904;59.926;30.404;2023-10-09T12:00:14;1.48;;;0.63;;
77738;SDS011;66904;59.926;30.404;2023-10-09T12:05:30;2.55;;;0.77;;
77738;SDS011;66904;59.926;30.404;2023-10-09T12:15:33;1.13;;;0.60;;
77738;SDS011;66904;59.926;30.404;2023-10-09T12:20:37;2.95;;;0.73;;
77738;SDS011;66904;59.926;30.404;2023-10-09T12:25:37;1.42;;;0.45;;
77738;SDS011;66904;59.926;30.404;2023-10-09T12:30:38;1.55;;;0.65;;
77738;SDS011;66904;59.926;30.404;2023-10-09T12:35:39;1.50;;;0.60;;
77738;SDS011;66904;59.926;30.404;2023-10-09T12:40:41;0.90;;;0.57;;
77738;SDS011;66904;59.926;30.404;2023-10-09T12:45:50;2.05;;;0.90;;
77738;SDS011;66904;59.926;30.404;2023-10-09T12:50:51;1.48;;;0.73;;
77738;SDS011;66904;59.926;30.404;2023-10-09T12:55:54;1.17;;;0.57;;
77738;SDS011;66904;59.926;30.404;2023-10-09T13:00:56;0.80;;;0.40;;
77738;SDS011;66904;59.926;30.404;2023-10-09T13:06:09;4.75;;;1.02;;
77738;SDS011;66904;59.926;30.404;2023-10-09T13:11:12;1.90;;;1.00;;
77738;SDS011;66904;59.926;30.404;2023-10-09T13:16:20;2.15;;;1.02;;
77738;SDS011;66904;59.926;30.404;2023-10-09T13:21:27;1.73;;;0.80;;
77738;SDS011;66904;59.926;30.404;2023-10-09T13:26:31;2.35;;;0.52;;
77738;SDS011;66904;59.926;30.404;2023-10-09T13:31:33;2.25;;;1.05;;
77738;SDS011;66904;59.926;30.404;2023-10-09T13:36:34;1.48;;;0.60;;
77738;SDS011;66904;59.926;30.404;2023-10-09T13:41:34;3.35;;;0.75;;
77738;SDS011;66904;59.926;30.404;2023-10-09T13:46:35;2.75;;;1.05;;
77738;SDS011;66904;59.926;30.404;2023-10-09T13:51:41;1.92;;;1.10;;
77738;SDS011;66904;59.926;30.404;2023-10-09T13:56:44;1.05;;;0.57;;
77738;SDS011;66904;59.926;30.404;2023-10-09T14:01:45;1.80;;;0.70;;
77738;SDS011;66904;59.926;30.404;2023-10-09T14:06:48;2.03;;;0.65;;
77738;SDS011;66904;59.926;30.404;2023-10-09T14:11:49;0.98;;;0.52;;
77738;SDS011;66904;59.926;30.404;2023-10-09T14:16:52;1.23;;;0.65;;
77738;SDS011;66904;59.926;30.404;2023-10-09T14:21:57;1.63;;;0.60;;
77738;SDS011;66904;59.926;30.404;2023-10-09T14:26:58;1.00;;;0.47;;
77738;SDS011;66904;59.926;30.404;2023-10-09T14:31:59;2.40;;;0.93;;
77738;SDS011;66904;59.926;30.404;2023-10-09T14:37:00;1.05;;;0.60;;
77738;SDS011;66904;59.926;30.404;2023-10-09T14:42:01;1.30;;;0.70;;
77738;SDS011;66904;59.926;30.404;2023-10-09T14:47:09;1.20;;;0.35;;
77738;SDS011;66904;59.926;30.404;2023-10-09T14:52:10;1.88;;;0.82;;
77738;SDS011;66904;59.926;30.404;2023-10-09T14:57:11;2.55;;;1.15;;
77738;SDS011;66904;59.926;30.404;2023-10-09T15:02:13;1.60;;;0.77;;
77738;SDS011;66904;59.926;30.404;2023-10-09T15:07:14;2.42;;;0.85;;
77738;SDS011;66904;59.926;30.404;2023-10-09T15:12:15;1.35;;;0.73;;
77738;SDS011;66904;59.926;30.404;2023-10-09T15:17:16;1.90;;;1.00;;
77738;SDS011;66904;59.926;30.404;2023-10-09T15:22:16;1.63;;;0.85;;
77738;SDS011;66904;59.926;30.404;2023-10-09T15:27:17;1.35;;;0.95;;
77738;SDS011;66904;59.926;30.404;2023-10-09T15:32:18;2.85;;;1.05;;
77738;SDS011;66904;59.926;30.404;2023-10-09T15:37:22;1.83;;;0.90;;
77738;SDS011;66904;59.926;30.404;2023-10-09T15:42:23;1.30;;;0.68;;
77738;SDS011;66904;59.926;30.404;2023-10-09T15:47:23;1.98;;;0.98;;
77738;SDS011;66904;59.926;30.404;2023-10-09T15:52:24;3.50;;;0.52;;
77738;SDS011;66904;59.926;30.404;2023-10-09T15:57:26;1.60;;;0.73;;
77738;SDS011;66904;59.926;30.404;2023-10-09T16:02:27;2.65;;;1.10;;
77738;SDS011;66904;59.926;30.404;2023-10-09T16:07:28;2.00;;;0.73;;
77738;SDS011;66904;59.926;30.404;2023-10-09T16:12:29;1.65;;;0.68;;
77738;SDS011;66904;59.926;30.404;2023-10-09T16:17:31;3.00;;;1.08;;
77738;SDS011;66904;59.926;30.404;2023-10-09T16:22:32;2.60;;;1.10;;
77738;SDS011;66904;59.926;30.404;2023-10-09T16:27:33;3.13;;;1.10;;
77738;SDS011;66904;59.926;30.404;2023-10-09T16:32:33;2.15;;;0.95;;
77738;SDS011;66904;59.926;30.404;2023-10-09T16:37:34;2.55;;;1.20;;
77738;SDS011;66904;59.926;30.404;2023-10-09T16:42:37;3.58;;;1.30;;
77738;SDS011;66904;59.926;30.404;2023-10-09T16:47:38;2.80;;;0.70;;
77738;SDS011;66904;59.926;30.404;2023-10-09T16:52:39;1.88;;;0.88;;
77738;SDS011;66904;59.926;30.404;2023-10-09T16:57:40;2.05;;;0.80;;
77738;SDS011;66904;59.926;30.404;2023-10-09T17:02:41;1.88;;;0.77;;
77738;SDS011;66904;59.926;30.404;2023-10-09T17:07:41;1.40;;;0.60;;
77738;SDS011;66904;59.926;30.404;2023-10-09T17:12:45;2.35;;;0.90;;
77738;SDS011;66904;59.926;30.404;2023-10-09T17:17:46;1.42;;;0.60;;
77738;SDS011;66904;59.926;30.404;2023-10-09T17:22:50;0.90;;;0.50;;
77738;SDS011;66904;59.926;30.404;2023-10-09T17:27:51;1.73;;;0.65;;
77738;SDS011;66904;59.926;30.404;2023-10-09T17:32:54;1.92;;;0.88;;
77738;SDS011;66904;59.926;30.404;2023-10-09T17:37:54;2.85;;;0.98;;
77738;SDS011;66904;59.926;30.404;2023-10-09T17:42:56;1.35;;;0.70;;
77738;SDS011;66904;59.926;30.404;2023-10-09T17:47:57;1.58;;;0.65;;
77738;SDS011;66904;59.926;30.404;2023-10-09T17:52:59;1.83;;;0.82;;
77738;SDS011;66904;59.926;30.404;2023-10-09T17:58:02;1.48;;;0.70;;
77738;SDS011;66904;59.926;30.404;2023-10-09T18:03:10;1.23;;;0.60;;
77738;SDS011;66904;59.926;30.404;2023-10-09T18:08:15;2.05;;;0.93;;
77738;SDS011;66904;59.926;30.404;2023-10-09T18:13:15;2.17;;;0.68;;
77738;SDS011;66904;59.926;30.404;2023-10-09T18:18:19;2.05;;;0.82;;
77738;SDS011;66904;59.926;30.404;2023-10-09T18:23:20;1.55;;;0.60;;
77738;SDS011;66904;59.926;30.404;2023-10-09T18:28:20;1.10;;;0.47;;
77738;SDS011;66904;59.926;30.404;2023-10-09T18:33:21;1.13;;;0.60;;
77738;SDS011;66904;59.926;30.404;2023-10-09T18:38:23;1.35;;;0.43;;
77738;SDS011;66904;59.926;30.404;2023-10-09T18:43:23;1.33;;;0.50;;
77738;SDS011;66904;59.926;30.404;2023-10-09T18:48:28;2.42;;;0.80;;
77738;SDS011;66904;59.926;30.404;2023-10-09T18:53:29;1.50;;;0.50;;
77738;SDS011;66904;59.926;30.404;2023-10-09T18:58:32;1.25;;;0.77;;
77738;SDS011;66904;59.926;30.404;2023-10-09T19:03:32;2.00;;;0.57;;
77738;SDS011;66904;59.926;30.404;2023-10-09T19:08:36;1.83;;;0.80;;
77738;SDS011;66904;59.926;30.404;2023-10-09T19:13:37;1.70;;;0.60;;
77738;SDS011;66904;59.926;30.404;2023-10-09T19:18:40;2.05;;;0.70;;
77738;SDS011;66904;59.926;30.404;2023-10-09T19:23:41;0.85;;;0.40;;
77738;SDS011;66904;59.926;30.404;2023-10-09T19:28:44;1.20;;;0.70;;
77738;SDS011;66904;59.926;30.404;2023-10-09T19:33:47;0.95;;;0.38;;
77738;SDS011;66904;59.926;30.404;2023-10-09T19:38:49;1.05;;;0.40;;
77738;SDS011;66904;59.926;30.404;2023-10-09T19:43:52;1.88;;;0.70;;
77738;SDS011;66904;59.926;30.404;2023-10-09T19:48:53;2.13;;;0.43;;
77738;SDS011;66904;59.926;30.404;2023-10-09T19:53:55;2.33;;;0.80;;
77738;SDS011;66904;59.926;30.404;2023-10-09T19:58:55;1.35;;;0.70;;
77738;SDS011;66904;59.926;30.404;2023-10-09T20:03:57;0.88;;;0.43;;
77738;SDS011;66904;59.926;30.404;2023-10-09T20:08:58;1.25;;;0.70;;
77738;SDS011;66904;59.926;30.404;2023-10-09T20:13:59;1.00;;;0.47;;
77738;SDS011;66904;59.926;30.404;2023-10-09T20:19:00;1.92;;;0.60;;
77738;SDS011;66904;59.926;30.404;2023-10-09T20:24:02;1.27;;;0.40;;
77738;SDS011;66904;59.926;30.404;2023-10-09T20:29:02;1.70;;;0.65;;
77738;SDS011;66904;59.926;30.404;2023-10-09T20:34:04;1.48;;;0.50;;
77738;SDS011;66904;59.926;30.404;2023-10-09T20:39:09;1.40;;;0.52;;
77738;SDS011;66904;59.926;30.404;2023-10-09T20:44:11;1.90;;;0.77;;
77738;SDS011;66904;59.926;30.404;2023-10-09T20:49:11;4.35;;;0.73;;
77738;SDS011;66904;59.926;30.404;2023-10-09T20:54:16;1.95;;;0.50;;
77738;SDS011;66904;59.926;30.404;2023-10-09T20:59:16;2.33;;;0.77;;
77738;SDS011;66904;59.926;30.404;2023-10-09T21:04:17;0.73;;;0.30;;
77738;SDS011;66904;59.926;30.404;2023-10-09T21:09:18;0.85;;;0.20;;
77738;SDS011;66904;59.926;30.404;2023-10-09T21:14:18;1.67;;;0.63;;
77738;SDS011;66904;59.926;30.404;2023-10-09T21:19:19;1.52;;;0.40;;
77738;SDS011;66904;59.926;30.404;2023-10-09T21:24:19;0.80;;;0.50;;
77738;SDS011;66904;59.926;30.404;2023-10-09T21:29:20;1.55;;;0.50;;
77738;SDS011;66904;59.926;30.404;2023-10-09T21:34:21;1.98;;;0.77;;
77738;SDS011;66904;59.926;30.404;2023-10-09T21:39:23;1.02;;;0.30;;
77738;SDS011;66904;59.926;30.404;2023-10-09T21:44:23;1.05;;;0.43;;
77738;SDS011;66904;59.926;30.404;2023-10-09T21:49:24;0.98;;;0.38;;
77738;SDS011;66904;59.926;30.404;2023-10-09T21:54:26;1.95;;;0.75;;
77738;SDS011;66904;59.926;30.404;2023-10-09T21:59:28;1.02;;;0.43;;
77738;SDS011;66904;59.926;30.404;2023-10-09T22:04:30;0.80;;;0.55;;
77738;SDS011;66904;59.926;30.404;2023-10-09T22:09:30;0.90;;;0.30;;
77738;SDS011;66904;59.926;30.404;2023-10-09T22:14:31;1.45;;;0.60;;
77738;SDS011;66904;59.926;30.404;2023-10-09T22:19:31;0.43;;;0.20;;
77738;SDS011;66904;59.926;30.404;2023-10-09T22:24:37;1.20;;;0.50;;
77738;SDS011;66904;59.926;30.404;2023-10-09T22:29:48;0.40;;;0.20;;
77738;SDS011;66904;59.926;30.404;2023-10-09T22:34:52;1.00;;;0.40;;
77738;SDS011;66904;59.926;30.404;2023-10-09T22:39:57;1.20;;;0.52;;
77738;SDS011;66904;59.926;30.404;2023-10-09T22:45:01;0.43;;;0.13;;
77738;SDS011;66904;59.926;30.404;2023-10-09T22:50:02;1.33;;;0.50;;
77738;SDS011;66904;59.926;30.404;2023-10-09T22:55:17;0.98;;;0.55;;
77738;SDS011;66904;59.926;30.404;2023-10-09T23:00:18;1.08;;;0.40;;
77738;SDS011;66904;59.926;30.404;2023-10-09T23:05:36;2.35;;;0.45;;
77738;SDS011;66904;59.926;30.404;2023-10-09T23:10:44;0.80;;;0.30;;
77738;SDS011;66904;59.926;30.404;2023-10-09T23:15:50;0.52;;;0.30;;
77738;SDS011;66904;59.926;30.404;2023-10-09T23:21:06;0.80;;;0.45;;
77738;SDS011;66904;59.926;30.404;2023-10-09T23:26:23;1.83;;;0.60;;
77738;SDS011;66904;59.926;30.404;2023-10-09T23:31:28;1.38;;;0.40;;
77738;SDS011;66904;59.926;30.404;2023-10-09T23:36:47;1.73;;;0.60;;
77738;SDS011;66904;59.926;30.404;2023-10-09T23:41:55;4.18;;;0.65;;
77738;SDS011;66904;59.926;30.404;2023-10-09T23:47:03;0.55;;;0.20;;
77738;SDS011;66904;59.926;30.404;2023-10-09T23:52:10;1.88;;;0.60;;
77738;SDS011;66904;59.926;30.404;2023-10-09T23:57:15;0.60;;;0.20;;
